sensor_id;sensor_type;location;lat;lon;timestamp;P1;durP1;ratioP1;P2;durP2;ratioP2
45970;SDS011;31681;48.982;8.394;2022-10-17T00:01:31;4.40;;;2.78;;
45970;SDS011;31681;48.982;8.394;2022-10-17T00:03:57;3.55;;;2.60;;
45970;SDS011;31681;48.982;8.394;2022-10-17T00:06:22;4.25;;;2.60;;
45970;SDS011;31681;48.982;8.394;2022-10-17T00:08:48;3.63;;;2.83;;
45970;SDS011;31681;48.982;8.394;2022-10-17T00:11:21;3.38;;;2.58;;
45970;SDS011;31681;48.982;8.394;2022-10-17T00:13:48;5.47;;;2.42;;
45970;SDS011;31681;48.982;8.394;2022-10-17T00:16:19;5.10;;;2.72;;
45970;SDS011;31681;48.982;8.394;2022-10-17T00:18:48;5.00;;;2.80;;
45970;SDS011;31681;48.982;8.394;2022-10-17T00:21:15;7.15;;;2.58;;
45970;SDS011;31681;48.982;8.394;2022-10-17T00:23:44;3.67;;;2.28;;
45970;SDS011;31681;48.982;8.394;2022-10-17T00:26:10;5.70;;;3.03;;
45970;SDS011;31681;48.982;8.394;2022-10-17T00:28:36;4.10;;;2.17;;
45970;SDS011;31681;48.982;8.394;2022-10-17T00:31:02;3.97;;;2.58;;
45970;SDS011;31681;48.982;8.394;2022-10-17T00:33:30;6.50;;;2.72;;
45970;SDS011;31681;48.982;8.394;2022-10-17T00:36:03;5.15;;;2.92;;
45970;SDS011;31681;48.982;8.394;2022-10-17T00:38:33;5.63;;;2.83;;
45970;SDS011;31681;48.982;8.394;2022-10-17T00:40:59;3.83;;;2.15;;
45970;SDS011;31681;48.982;8.394;2022-10-17T00:43:25;3.38;;;2.13;;
45970;SDS011;31681;48.982;8.394;2022-10-17T00:45:51;6.90;;;2.30;;
45970;SDS011;31681;48.982;8.394;2022-10-17T00:48:17;7.65;;;2.25;;
45970;SDS011;31681;48.982;8.394;2022-10-17T00:50:45;3.90;;;2.75;;
45970;SDS011;31681;48.982;8.394;2022-10-17T00:53:13;4.57;;;2.33;;
45970;SDS011;31681;48.982;8.394;2022-10-17T00:55:47;6.65;;;2.72;;
45970;SDS011;31681;48.982;8.394;2022-10-17T00:58:14;3.50;;;2.40;;
45970;SDS011;31681;48.982;8.394;2022-10-17T01:00:41;3.10;;;2.50;;
45970;SDS011;31681;48.982;8.394;2022-10-17T01:03:08;6.85;;;2.38;;
45970;SDS011;31681;48.982;8.394;2022-10-17T01:05:33;3.53;;;2.30;;
45970;SDS011;31681;48.982;8.394;2022-10-17T01:07:59;5.47;;;2.30;;
45970;SDS011;31681;48.982;8.394;2022-10-17T01:10:28;6.07;;;2.67;;
45970;SDS011;31681;48.982;8.394;2022-10-17T01:13:10;6.25;;;2.70;;
45970;SDS011;31681;48.982;8.394;2022-10-17T01:15:58;2.83;;;1.92;;
45970;SDS011;31681;48.982;8.394;2022-10-17T01:18:35;4.60;;;2.20;;
45970;SDS011;31681;48.982;8.394;2022-10-17T01:21:38;3.00;;;2.38;;
45970;SDS011;31681;48.982;8.394;2022-10-17T01:35:26;4.40;;;2.28;;
45970;SDS011;31681;48.982;8.394;2022-10-17T01:43:31;4.82;;;2.50;;
45970;SDS011;31681;48.982;8.394;2022-10-17T01:46:14;2.85;;;1.77;;
45970;SDS011;31681;48.982;8.394;2022-10-17T01:48:43;3.33;;;2.00;;
45970;SDS011;31681;48.982;8.394;2022-10-17T01:51:12;3.08;;;2.00;;
45970;SDS011;31681;48.982;8.394;2022-10-17T01:53:53;4.28;;;2.38;;
45970;SDS011;31681;48.982;8.394;2022-10-17T01:56:24;3.53;;;2.22;;
45970;SDS011;31681;48.982;8.394;2022-10-17T01:58:54;2.70;;;2.25;;
45970;SDS011;31681;48.982;8.394;2022-10-17T02:01:24;3.85;;;2.53;;
45970;SDS011;31681;48.982;8.394;2022-10-17T02:03:53;4.20;;;2.38;;
45970;SDS011;31681;48.982;8.394;2022-10-17T02:06:20;2.95;;;2.15;;
45970;SDS011;31681;48.982;8.394;2022-10-17T02:08:46;4.35;;;2.25;;
45970;SDS011;31681;48.982;8.394;2022-10-17T02:11:14;4.25;;;2.30;;
45970;SDS011;31681;48.982;8.394;2022-10-17T02:16:37;2.42;;;1.55;;
45970;SDS011;31681;48.982;8.394;2022-10-17T02:25:20;5.60;;;2.15;;
45970;SDS011;31681;48.982;8.394;2022-10-17T02:27:21;3.83;;;2.40;;
45970;SDS011;31681;48.982;8.394;2022-10-17T02:30:39;3.10;;;2.00;;
45970;SDS011;31681;48.982;8.394;2022-10-17T02:32:58;3.85;;;2.00;;
45970;SDS011;31681;48.982;8.394;2022-10-17T02:35:32;4.10;;;2.13;;
45970;SDS011;31681;48.982;8.394;2022-10-17T02:38:02;3.40;;;1.65;;
45970;SDS011;31681;48.982;8.394;2022-10-17T02:40:32;2.60;;;2.25;;
45970;SDS011;31681;48.982;8.394;2022-10-17T02:42:59;6.28;;;2.15;;
45970;SDS011;31681;48.982;8.394;2022-10-17T02:45:28;2.78;;;1.83;;
45970;SDS011;31681;48.982;8.394;2022-10-17T02:50:40;2.67;;;1.90;;
45970;SDS011;31681;48.982;8.394;2022-10-17T02:53:08;5.25;;;2.00;;
45970;SDS011;31681;48.982;8.394;2022-10-17T02:55:40;2.20;;;2.00;;
45970;SDS011;31681;48.982;8.394;2022-10-17T02:58:15;8.48;;;1.98;;
45970;SDS011;31681;48.982;8.394;2022-10-17T03:00:45;2.88;;;2.10;;
45970;SDS011;31681;48.982;8.394;2022-10-17T03:03:24;2.55;;;2.08;;
45970;SDS011;31681;48.982;8.394;2022-10-17T03:05:51;3.55;;;2.20;;
45970;SDS011;31681;48.982;8.394;2022-10-17T03:08:21;2.92;;;2.35;;
45970;SDS011;31681;48.982;8.394;2022-10-17T03:10:47;4.32;;;2.13;;
45970;SDS011;31681;48.982;8.394;2022-10-17T03:13:14;4.10;;;2.38;;
45970;SDS011;31681;48.982;8.394;2022-10-17T03:15:40;4.60;;;2.67;;
45970;SDS011;31681;48.982;8.394;2022-10-17T03:18:06;3.03;;;1.92;;
45970;SDS011;31681;48.982;8.394;2022-10-17T03:20:32;3.10;;;2.20;;
45970;SDS011;31681;48.982;8.394;2022-10-17T03:22:57;3.08;;;2.25;;
45970;SDS011;31681;48.982;8.394;2022-10-17T03:25:23;3.92;;;2.05;;
45970;SDS011;31681;48.982;8.394;2022-10-17T03:27:49;4.20;;;2.05;;
45970;SDS011;31681;48.982;8.394;2022-10-17T03:30:14;2.30;;;2.10;;
45970;SDS011;31681;48.982;8.394;2022-10-17T03:32:40;3.15;;;2.13;;
45970;SDS011;31681;48.982;8.394;2022-10-17T03:35:07;5.85;;;1.80;;
45970;SDS011;31681;48.982;8.394;2022-10-17T03:37:33;4.25;;;2.50;;
45970;SDS011;31681;48.982;8.394;2022-10-17T03:39:58;6.20;;;1.98;;
45970;SDS011;31681;48.982;8.394;2022-10-17T03:42:24;3.70;;;2.13;;
45970;SDS011;31681;48.982;8.394;2022-10-17T03:44:49;4.28;;;2.40;;
45970;SDS011;31681;48.982;8.394;2022-10-17T03:47:15;2.83;;;1.65;;
45970;SDS011;31681;48.982;8.394;2022-10-17T03:49:42;5.03;;;2.10;;
45970;SDS011;31681;48.982;8.394;2022-10-17T03:52:13;5.60;;;2.05;;
45970;SDS011;31681;48.982;8.394;2022-10-17T03:54:40;2.70;;;2.00;;
45970;SDS011;31681;48.982;8.394;2022-10-17T03:57:05;3.58;;;2.35;;
45970;SDS011;31681;48.982;8.394;2022-10-17T03:59:31;11.02;;;2.75;;
45970;SDS011;31681;48.982;8.394;2022-10-17T04:02:02;4.50;;;1.67;;
45970;SDS011;31681;48.982;8.394;2022-10-17T04:04:28;4.00;;;2.35;;
45970;SDS011;31681;48.982;8.394;2022-10-17T04:06:53;5.95;;;2.38;;
45970;SDS011;31681;48.982;8.394;2022-10-17T04:09:19;3.67;;;2.38;;
45970;SDS011;31681;48.982;8.394;2022-10-17T04:11:51;3.42;;;2.58;;
45970;SDS011;31681;48.982;8.394;2022-10-17T04:14:18;4.75;;;1.98;;
45970;SDS011;31681;48.982;8.394;2022-10-17T04:16:44;7.30;;;2.42;;
45970;SDS011;31681;48.982;8.394;2022-10-17T04:19:14;4.28;;;1.75;;
45970;SDS011;31681;48.982;8.394;2022-10-17T04:21:43;5.65;;;2.55;;
45970;SDS011;31681;48.982;8.394;2022-10-17T04:24:09;3.67;;;2.13;;
45970;SDS011;31681;48.982;8.394;2022-10-17T04:27:02;4.07;;;2.03;;
45970;SDS011;31681;48.982;8.394;2022-10-17T04:29:30;3.53;;;2.70;;
45970;SDS011;31681;48.982;8.394;2022-10-17T04:32:13;5.38;;;2.10;;
45970;SDS011;31681;48.982;8.394;2022-10-17T04:34:43;3.30;;;2.38;;
45970;SDS011;31681;48.982;8.394;2022-10-17T04:37:12;6.30;;;2.42;;
45970;SDS011;31681;48.982;8.394;2022-10-17T04:39:37;3.22;;;2.17;;
45970;SDS011;31681;48.982;8.394;2022-10-17T04:42:03;4.75;;;1.83;;
45970;SDS011;31681;48.982;8.394;2022-10-17T04:44:29;3.50;;;2.20;;
45970;SDS011;31681;48.982;8.394;2022-10-17T04:46:56;2.78;;;2.10;;
45970;SDS011;31681;48.982;8.394;2022-10-17T04:49:22;3.55;;;2.35;;
45970;SDS011;31681;48.982;8.394;2022-10-17T04:51:51;2.97;;;2.15;;
45970;SDS011;31681;48.982;8.394;2022-10-17T04:54:20;7.15;;;2.05;;
45970;SDS011;31681;48.982;8.394;2022-10-17T04:56:50;3.13;;;2.30;;
45970;SDS011;31681;48.982;8.394;2022-10-17T04:59:17;3.28;;;2.28;;
45970;SDS011;31681;48.982;8.394;2022-10-17T05:01:44;4.72;;;2.45;;
45970;SDS011;31681;48.982;8.394;2022-10-17T05:04:09;5.03;;;2.20;;
45970;SDS011;31681;48.982;8.394;2022-10-17T05:06:35;3.65;;;2.80;;
45970;SDS011;31681;48.982;8.394;2022-10-17T05:09:21;7.45;;;2.17;;
45970;SDS011;31681;48.982;8.394;2022-10-17T05:11:47;3.50;;;2.08;;
45970;SDS011;31681;48.982;8.394;2022-10-17T05:14:13;3.25;;;2.15;;
45970;SDS011;31681;48.982;8.394;2022-10-17T05:16:39;5.22;;;1.98;;
45970;SDS011;31681;48.982;8.394;2022-10-17T05:19:06;5.50;;;2.40;;
45970;SDS011;31681;48.982;8.394;2022-10-17T05:21:37;6.43;;;2.50;;
45970;SDS011;31681;48.982;8.394;2022-10-17T05:24:07;2.88;;;2.30;;
45970;SDS011;31681;48.982;8.394;2022-10-17T05:26:36;4.15;;;2.17;;
45970;SDS011;31681;48.982;8.394;2022-10-17T05:29:02;2.97;;;1.88;;
45970;SDS011;31681;48.982;8.394;2022-10-17T05:31:30;2.88;;;1.92;;
45970;SDS011;31681;48.982;8.394;2022-10-17T05:34:00;3.97;;;2.10;;
45970;SDS011;31681;48.982;8.394;2022-10-17T05:36:28;4.03;;;2.25;;
45970;SDS011;31681;48.982;8.394;2022-10-17T05:38:53;3.92;;;2.20;;
45970;SDS011;31681;48.982;8.394;2022-10-17T05:41:20;3.60;;;2.95;;
45970;SDS011;31681;48.982;8.394;2022-10-17T05:43:46;3.97;;;2.00;;
45970;SDS011;31681;48.982;8.394;2022-10-17T05:46:16;2.83;;;2.17;;
45970;SDS011;31681;48.982;8.394;2022-10-17T05:48:41;3.38;;;2.30;;
45970;SDS011;31681;48.982;8.394;2022-10-17T05:51:08;3.55;;;2.22;;
45970;SDS011;31681;48.982;8.394;2022-10-17T05:53:36;4.07;;;2.50;;
45970;SDS011;31681;48.982;8.394;2022-10-17T05:56:06;3.63;;;2.03;;
45970;SDS011;31681;48.982;8.394;2022-10-17T05:58:35;2.80;;;2.10;;
45970;SDS011;31681;48.982;8.394;2022-10-17T06:01:05;6.28;;;2.28;;
45970;SDS011;31681;48.982;8.394;2022-10-17T06:03:31;2.83;;;1.80;;
45970;SDS011;31681;48.982;8.394;2022-10-17T06:06:04;4.57;;;2.17;;
45970;SDS011;31681;48.982;8.394;2022-10-17T06:08:31;4.78;;;2.50;;
45970;SDS011;31681;48.982;8.394;2022-10-17T06:10:58;4.18;;;2.67;;
45970;SDS011;31681;48.982;8.394;2022-10-17T06:13:24;5.57;;;2.50;;
45970;SDS011;31681;48.982;8.394;2022-10-17T06:15:51;3.88;;;2.10;;
45970;SDS011;31681;48.982;8.394;2022-10-17T06:18:16;3.40;;;2.25;;
45970;SDS011;31681;48.982;8.394;2022-10-17T06:20:42;3.30;;;2.67;;
45970;SDS011;31681;48.982;8.394;2022-10-17T06:23:07;2.95;;;1.80;;
45970;SDS011;31681;48.982;8.394;2022-10-17T06:25:53;4.57;;;2.88;;
45970;SDS011;31681;48.982;8.394;2022-10-17T06:28:22;5.30;;;2.38;;
45970;SDS011;31681;48.982;8.394;2022-10-17T06:30:48;4.30;;;2.22;;
45970;SDS011;31681;48.982;8.394;2022-10-17T06:33:13;5.97;;;3.22;;
45970;SDS011;31681;48.982;8.394;2022-10-17T06:35:39;5.95;;;2.78;;
45970;SDS011;31681;48.982;8.394;2022-10-17T06:38:05;4.15;;;3.00;;
45970;SDS011;31681;48.982;8.394;2022-10-17T06:40:33;5.50;;;3.60;;
45970;SDS011;31681;48.982;8.394;2022-10-17T06:42:59;5.45;;;2.53;;
45970;SDS011;31681;48.982;8.394;2022-10-17T06:45:44;6.65;;;2.80;;
45970;SDS011;31681;48.982;8.394;2022-10-17T06:48:31;7.85;;;3.90;;
45970;SDS011;31681;48.982;8.394;2022-10-17T06:51:09;9.77;;;3.83;;
45970;SDS011;31681;48.982;8.394;2022-10-17T06:53:45;9.40;;;3.70;;
45970;SDS011;31681;48.982;8.394;2022-10-17T06:56:49;8.05;;;3.05;;
45970;SDS011;31681;48.982;8.394;2022-10-17T06:59:24;3.70;;;2.42;;
45970;SDS011;31681;48.982;8.394;2022-10-17T07:01:56;9.63;;;4.32;;
45970;SDS011;31681;48.982;8.394;2022-10-17T07:04:23;3.67;;;2.67;;
45970;SDS011;31681;48.982;8.394;2022-10-17T07:06:49;6.00;;;3.17;;
45970;SDS011;31681;48.982;8.394;2022-10-17T07:09:18;7.05;;;3.33;;
45970;SDS011;31681;48.982;8.394;2022-10-17T07:11:43;3.30;;;2.63;;
45970;SDS011;31681;48.982;8.394;2022-10-17T07:14:09;4.82;;;3.30;;
45970;SDS011;31681;48.982;8.394;2022-10-17T07:16:34;8.32;;;3.22;;
45970;SDS011;31681;48.982;8.394;2022-10-17T07:19:08;3.63;;;2.83;;
45970;SDS011;31681;48.982;8.394;2022-10-17T07:21:36;6.72;;;3.25;;
45970;SDS011;31681;48.982;8.394;2022-10-17T07:24:02;4.85;;;3.03;;
45970;SDS011;31681;48.982;8.394;2022-10-17T07:26:28;6.40;;;3.08;;
45970;SDS011;31681;48.982;8.394;2022-10-17T07:28:54;10.95;;;3.67;;
45970;SDS011;31681;48.982;8.394;2022-10-17T07:31:43;4.75;;;2.90;;
45970;SDS011;31681;48.982;8.394;2022-10-17T07:34:09;11.13;;;3.53;;
45970;SDS011;31681;48.982;8.394;2022-10-17T07:36:35;4.25;;;2.63;;
45970;SDS011;31681;48.982;8.394;2022-10-17T07:39:03;5.07;;;2.90;;
45970;SDS011;31681;48.982;8.394;2022-10-17T07:41:30;4.38;;;3.08;;
45970;SDS011;31681;48.982;8.394;2022-10-17T07:43:55;7.40;;;3.10;;
45970;SDS011;31681;48.982;8.394;2022-10-17T07:46:27;6.45;;;2.45;;
45970;SDS011;31681;48.982;8.394;2022-10-17T07:48:53;5.22;;;2.40;;
45970;SDS011;31681;48.982;8.394;2022-10-17T07:51:19;8.88;;;4.30;;
45970;SDS011;31681;48.982;8.394;2022-10-17T07:53:46;7.72;;;2.55;;
45970;SDS011;31681;48.982;8.394;2022-10-17T07:56:12;6.40;;;3.00;;
45970;SDS011;31681;48.982;8.394;2022-10-17T07:58:38;3.65;;;2.63;;
45970;SDS011;31681;48.982;8.394;2022-10-17T08:01:06;5.78;;;2.53;;
45970;SDS011;31681;48.982;8.394;2022-10-17T08:03:32;5.20;;;2.70;;
45970;SDS011;31681;48.982;8.394;2022-10-17T08:06:01;4.07;;;2.40;;
45970;SDS011;31681;48.982;8.394;2022-10-17T08:08:27;7.03;;;3.05;;
45970;SDS011;31681;48.982;8.394;2022-10-17T08:10:53;4.55;;;3.00;;
45970;SDS011;31681;48.982;8.394;2022-10-17T08:13:24;5.05;;;2.70;;
45970;SDS011;31681;48.982;8.394;2022-10-17T08:15:50;9.70;;;3.13;;
45970;SDS011;31681;48.982;8.394;2022-10-17T08:18:15;5.13;;;2.35;;
45970;SDS011;31681;48.982;8.394;2022-10-17T08:20:42;5.90;;;2.95;;
45970;SDS011;31681;48.982;8.394;2022-10-17T08:23:08;7.03;;;3.03;;
45970;SDS011;31681;48.982;8.394;2022-10-17T08:25:33;4.82;;;2.78;;
45970;SDS011;31681;48.982;8.394;2022-10-17T08:28:02;8.02;;;2.70;;
45970;SDS011;31681;48.982;8.394;2022-10-17T08:30:27;8.93;;;3.40;;
45970;SDS011;31681;48.982;8.394;2022-10-17T08:32:54;8.50;;;2.63;;
45970;SDS011;31681;48.982;8.394;2022-10-17T08:35:20;4.72;;;2.65;;
45970;SDS011;31681;48.982;8.394;2022-10-17T08:37:46;4.47;;;2.80;;
45970;SDS011;31681;48.982;8.394;2022-10-17T08:40:22;8.63;;;2.42;;
45970;SDS011;31681;48.982;8.394;2022-10-17T08:45:35;4.63;;;3.03;;
45970;SDS011;31681;48.982;8.394;2022-10-17T08:48:11;3.65;;;2.22;;
45970;SDS011;31681;48.982;8.394;2022-10-17T08:50:43;6.47;;;2.17;;
45970;SDS011;31681;48.982;8.394;2022-10-17T08:55:43;6.07;;;2.95;;
45970;SDS011;31681;48.982;8.394;2022-10-17T08:58:12;4.05;;;2.40;;
45970;SDS011;31681;48.982;8.394;2022-10-17T09:01:16;5.32;;;2.08;;
45970;SDS011;31681;48.982;8.394;2022-10-17T09:06:25;9.35;;;2.65;;
45970;SDS011;31681;48.982;8.394;2022-10-17T09:17:01;3.22;;;2.20;;
45970;SDS011;31681;48.982;8.394;2022-10-17T09:19:58;4.13;;;2.10;;
45970;SDS011;31681;48.982;8.394;2022-10-17T09:22:29;4.63;;;2.10;;
45970;SDS011;31681;48.982;8.394;2022-10-17T09:25:03;6.45;;;2.28;;
45970;SDS011;31681;48.982;8.394;2022-10-17T09:32:59;3.20;;;2.05;;
45970;SDS011;31681;48.982;8.394;2022-10-17T09:35:26;5.03;;;2.20;;
45970;SDS011;31681;48.982;8.394;2022-10-17T09:37:52;3.90;;;2.35;;
45970;SDS011;31681;48.982;8.394;2022-10-17T09:40:20;2.47;;;2.00;;
45970;SDS011;31681;48.982;8.394;2022-10-17T09:42:50;5.18;;;2.05;;
45970;SDS011;31681;48.982;8.394;2022-10-17T09:45:17;4.85;;;2.00;;
45970;SDS011;31681;48.982;8.394;2022-10-17T09:47:54;3.92;;;2.65;;
45970;SDS011;31681;48.982;8.394;2022-10-17T09:50:31;7.53;;;2.58;;
45970;SDS011;31681;48.982;8.394;2022-10-17T09:52:59;2.85;;;1.90;;
45970;SDS011;31681;48.982;8.394;2022-10-17T09:55:36;11.65;;;2.38;;
45970;SDS011;31681;48.982;8.394;2022-10-17T09:58:05;3.72;;;1.80;;
45970;SDS011;31681;48.982;8.394;2022-10-17T10:00:36;2.63;;;2.10;;
45970;SDS011;31681;48.982;8.394;2022-10-17T10:03:23;3.75;;;1.60;;
45970;SDS011;31681;48.982;8.394;2022-10-17T10:06:11;2.55;;;1.83;;
45970;SDS011;31681;48.982;8.394;2022-10-17T10:08:36;4.97;;;1.90;;
45970;SDS011;31681;48.982;8.394;2022-10-17T10:11:16;2.58;;;1.92;;
45970;SDS011;31681;48.982;8.394;2022-10-17T10:13:43;4.20;;;1.75;;
45970;SDS011;31681;48.982;8.394;2022-10-17T10:16:16;4.30;;;1.98;;
45970;SDS011;31681;48.982;8.394;2022-10-17T10:18:45;2.50;;;1.83;;
45970;SDS011;31681;48.982;8.394;2022-10-17T10:21:18;2.65;;;2.10;;
45970;SDS011;31681;48.982;8.394;2022-10-17T10:24:02;3.25;;;2.13;;
45970;SDS011;31681;48.982;8.394;2022-10-17T10:26:30;3.78;;;2.35;;
45970;SDS011;31681;48.982;8.394;2022-10-17T10:32:11;3.45;;;1.63;;
45970;SDS011;31681;48.982;8.394;2022-10-17T10:34:47;2.78;;;2.00;;
45970;SDS011;31681;48.982;8.394;2022-10-17T10:37:18;1.70;;;1.60;;
45970;SDS011;31681;48.982;8.394;2022-10-17T10:39:53;3.25;;;1.67;;
45970;SDS011;31681;48.982;8.394;2022-10-17T10:44:46;3.65;;;1.88;;
45970;SDS011;31681;48.982;8.394;2022-10-17T10:47:14;3.63;;;2.20;;
45970;SDS011;31681;48.982;8.394;2022-10-17T10:49:44;1.75;;;1.50;;
45970;SDS011;31681;48.982;8.394;2022-10-17T10:52:30;2.13;;;1.90;;
45970;SDS011;31681;48.982;8.394;2022-10-17T10:55:22;3.58;;;1.70;;
45970;SDS011;31681;48.982;8.394;2022-10-17T10:57:50;2.80;;;1.40;;
45970;SDS011;31681;48.982;8.394;2022-10-17T11:00:22;1.70;;;1.42;;
45970;SDS011;31681;48.982;8.394;2022-10-17T11:02:53;3.67;;;1.85;;
45970;SDS011;31681;48.982;8.394;2022-10-17T11:05:40;1.75;;;1.63;;
45970;SDS011;31681;48.982;8.394;2022-10-17T11:11:01;4.20;;;1.83;;
45970;SDS011;31681;48.982;8.394;2022-10-17T11:13:50;3.10;;;1.83;;
45970;SDS011;31681;48.982;8.394;2022-10-17T11:16:25;2.13;;;1.75;;
45970;SDS011;31681;48.982;8.394;2022-10-17T11:18:58;2.00;;;1.80;;
45970;SDS011;31681;48.982;8.394;2022-10-17T11:24:11;2.95;;;1.60;;
45970;SDS011;31681;48.982;8.394;2022-10-17T11:26:46;3.83;;;1.77;;
45970;SDS011;31681;48.982;8.394;2022-10-17T11:29:17;2.38;;;1.83;;
45970;SDS011;31681;48.982;8.394;2022-10-17T11:31:46;3.50;;;1.60;;
45970;SDS011;31681;48.982;8.394;2022-10-17T11:34:24;2.22;;;1.80;;
45970;SDS011;31681;48.982;8.394;2022-10-17T11:36:51;2.53;;;1.73;;
45970;SDS011;31681;48.982;8.394;2022-10-17T11:42:19;3.25;;;1.83;;
45970;SDS011;31681;48.982;8.394;2022-10-17T11:44:46;1.60;;;1.50;;
45970;SDS011;31681;48.982;8.394;2022-10-17T11:47:22;2.05;;;1.73;;
45970;SDS011;31681;48.982;8.394;2022-10-17T11:50:15;1.95;;;1.60;;
45970;SDS011;31681;48.982;8.394;2022-10-17T11:52:44;3.97;;;1.50;;
45970;SDS011;31681;48.982;8.394;2022-10-17T11:55:19;4.47;;;1.70;;
45970;SDS011;31681;48.982;8.394;2022-10-17T11:57:55;1.77;;;1.67;;
45970;SDS011;31681;48.982;8.394;2022-10-17T12:00:26;1.88;;;1.55;;
45970;SDS011;31681;48.982;8.394;2022-10-17T12:05:56;2.55;;;1.88;;
45970;SDS011;31681;48.982;8.394;2022-10-17T12:13:53;3.17;;;1.73;;
45970;SDS011;31681;48.982;8.394;2022-10-17T12:18:46;2.10;;;1.65;;
45970;SDS011;31681;48.982;8.394;2022-10-17T12:21:14;1.95;;;1.63;;
45970;SDS011;31681;48.982;8.394;2022-10-17T12:23:40;1.60;;;1.40;;
45970;SDS011;31681;48.982;8.394;2022-10-17T12:26:16;1.60;;;1.50;;
45970;SDS011;31681;48.982;8.394;2022-10-17T12:28:49;2.00;;;1.65;;
45970;SDS011;31681;48.982;8.394;2022-10-17T12:33:48;1.60;;;1.50;;
45970;SDS011;31681;48.982;8.394;2022-10-17T12:38:41;2.22;;;1.83;;
45970;SDS011;31681;48.982;8.394;2022-10-17T12:41:11;2.15;;;1.63;;
45970;SDS011;31681;48.982;8.394;2022-10-17T12:43:42;1.98;;;1.67;;
45970;SDS011;31681;48.982;8.394;2022-10-17T12:54:29;3.05;;;1.80;;
45970;SDS011;31681;48.982;8.394;2022-10-17T12:56:55;5.25;;;1.75;;
45970;SDS011;31681;48.982;8.394;2022-10-17T12:59:27;1.95;;;1.50;;
45970;SDS011;31681;48.982;8.394;2022-10-17T13:01:54;3.10;;;1.65;;
45970;SDS011;31681;48.982;8.394;2022-10-17T13:04:23;2.63;;;1.67;;
45970;SDS011;31681;48.982;8.394;2022-10-17T13:06:56;2.65;;;1.50;;
45970;SDS011;31681;48.982;8.394;2022-10-17T13:11:54;1.60;;;1.48;;
45970;SDS011;31681;48.982;8.394;2022-10-17T13:14:22;3.85;;;1.40;;
45970;SDS011;31681;48.982;8.394;2022-10-17T13:17:02;3.28;;;1.60;;
45970;SDS011;31681;48.982;8.394;2022-10-17T13:19:29;1.73;;;1.52;;
45970;SDS011;31681;48.982;8.394;2022-10-17T13:21:55;2.85;;;1.90;;
45970;SDS011;31681;48.982;8.394;2022-10-17T13:24:35;1.85;;;1.50;;
45970;SDS011;31681;48.982;8.394;2022-10-17T13:27:03;2.10;;;1.60;;
45970;SDS011;31681;48.982;8.394;2022-10-17T13:29:29;1.92;;;1.52;;
45970;SDS011;31681;48.982;8.394;2022-10-17T13:32:00;3.42;;;1.77;;
45970;SDS011;31681;48.982;8.394;2022-10-17T13:34:28;1.10;;;1.10;;
45970;SDS011;31681;48.982;8.394;2022-10-17T13:36:55;4.35;;;1.52;;
45970;SDS011;31681;48.982;8.394;2022-10-17T13:39:25;2.10;;;1.15;;
45970;SDS011;31681;48.982;8.394;2022-10-17T13:41:51;2.75;;;1.50;;
45970;SDS011;31681;48.982;8.394;2022-10-17T13:44:19;2.63;;;1.55;;
45970;SDS011;31681;48.982;8.394;2022-10-17T13:46:45;2.83;;;1.80;;
45970;SDS011;31681;48.982;8.394;2022-10-17T13:49:19;1.45;;;1.35;;
45970;SDS011;31681;48.982;8.394;2022-10-17T13:51:48;3.40;;;1.45;;
45970;SDS011;31681;48.982;8.394;2022-10-17T13:54:16;2.67;;;1.40;;
45970;SDS011;31681;48.982;8.394;2022-10-17T13:56:42;3.55;;;1.50;;
45970;SDS011;31681;48.982;8.394;2022-10-17T13:59:16;2.03;;;1.48;;
45970;SDS011;31681;48.982;8.394;2022-10-17T14:01:49;2.35;;;1.58;;
45970;SDS011;31681;48.982;8.394;2022-10-17T14:04:16;1.90;;;1.58;;
45970;SDS011;31681;48.982;8.394;2022-10-17T14:06:42;2.97;;;1.85;;
45970;SDS011;31681;48.982;8.394;2022-10-17T14:09:44;3.05;;;1.70;;
45970;SDS011;31681;48.982;8.394;2022-10-17T14:12:02;2.28;;;1.50;;
45970;SDS011;31681;48.982;8.394;2022-10-17T14:14:28;4.68;;;1.88;;
45970;SDS011;31681;48.982;8.394;2022-10-17T14:16:54;2.47;;;1.63;;
45970;SDS011;31681;48.982;8.394;2022-10-17T14:19:27;2.35;;;1.40;;
45970;SDS011;31681;48.982;8.394;2022-10-17T14:21:54;4.78;;;1.77;;
45970;SDS011;31681;48.982;8.394;2022-10-17T14:26:47;2.33;;;1.63;;
45970;SDS011;31681;48.982;8.394;2022-10-17T14:29:19;3.20;;;1.45;;
45970;SDS011;31681;48.982;8.394;2022-10-17T14:31:45;2.33;;;1.50;;
45970;SDS011;31681;48.982;8.394;2022-10-17T14:34:28;2.80;;;1.80;;
45970;SDS011;31681;48.982;8.394;2022-10-17T14:36:54;3.85;;;1.67;;
45970;SDS011;31681;48.982;8.394;2022-10-17T14:39:23;2.70;;;1.95;;
45970;SDS011;31681;48.982;8.394;2022-10-17T14:41:50;2.70;;;1.58;;
45970;SDS011;31681;48.982;8.394;2022-10-17T14:44:29;2.58;;;1.65;;
45970;SDS011;31681;48.982;8.394;2022-10-17T14:47:03;1.90;;;1.58;;
45970;SDS011;31681;48.982;8.394;2022-10-17T14:54:46;2.03;;;1.50;;
45970;SDS011;31681;48.982;8.394;2022-10-17T14:59:53;4.45;;;1.70;;
45970;SDS011;31681;48.982;8.394;2022-10-17T15:02:18;2.65;;;1.42;;
45970;SDS011;31681;48.982;8.394;2022-10-17T15:04:44;1.88;;;1.45;;
45970;SDS011;31681;48.982;8.394;2022-10-17T15:07:11;2.00;;;1.58;;
45970;SDS011;31681;48.982;8.394;2022-10-17T15:09:38;2.85;;;1.55;;
45970;SDS011;31681;48.982;8.394;2022-10-17T15:12:05;2.30;;;2.10;;
45970;SDS011;31681;48.982;8.394;2022-10-17T15:14:31;3.30;;;2.28;;
45970;SDS011;31681;48.982;8.394;2022-10-17T15:16:56;2.72;;;1.90;;
45970;SDS011;31681;48.982;8.394;2022-10-17T15:19:21;4.68;;;1.88;;
45970;SDS011;31681;48.982;8.394;2022-10-17T15:21:47;3.53;;;1.60;;
45970;SDS011;31681;48.982;8.394;2022-10-17T15:24:12;2.20;;;1.67;;
45970;SDS011;31681;48.982;8.394;2022-10-17T15:26:39;2.85;;;1.75;;
45970;SDS011;31681;48.982;8.394;2022-10-17T15:29:04;2.97;;;1.58;;
45970;SDS011;31681;48.982;8.394;2022-10-17T15:31:30;2.13;;;1.65;;
45970;SDS011;31681;48.982;8.394;2022-10-17T15:33:55;17.05;;;3.90;;
45970;SDS011;31681;48.982;8.394;2022-10-17T15:36:28;5.88;;;2.13;;
45970;SDS011;31681;48.982;8.394;2022-10-17T15:38:54;2.95;;;1.70;;
45970;SDS011;31681;48.982;8.394;2022-10-17T15:41:23;2.78;;;1.45;;
45970;SDS011;31681;48.982;8.394;2022-10-17T15:43:49;5.45;;;2.00;;
45970;SDS011;31681;48.982;8.394;2022-10-17T15:46:21;2.17;;;1.98;;
45970;SDS011;31681;48.982;8.394;2022-10-17T15:48:48;3.13;;;2.08;;
45970;SDS011;31681;48.982;8.394;2022-10-17T15:51:14;1.98;;;1.50;;
45970;SDS011;31681;48.982;8.394;2022-10-17T15:53:40;2.13;;;1.83;;
45970;SDS011;31681;48.982;8.394;2022-10-17T15:56:06;2.60;;;2.00;;
45970;SDS011;31681;48.982;8.394;2022-10-17T15:58:36;3.05;;;1.77;;
45970;SDS011;31681;48.982;8.394;2022-10-17T16:01:02;1.98;;;1.70;;
45970;SDS011;31681;48.982;8.394;2022-10-17T16:03:28;4.03;;;1.95;;
45970;SDS011;31681;48.982;8.394;2022-10-17T16:05:54;2.17;;;1.67;;
45970;SDS011;31681;48.982;8.394;2022-10-17T16:08:20;1.85;;;1.67;;
45970;SDS011;31681;48.982;8.394;2022-10-17T16:10:45;4.82;;;2.13;;
45970;SDS011;31681;48.982;8.394;2022-10-17T16:13:17;2.88;;;1.92;;
45970;SDS011;31681;48.982;8.394;2022-10-17T16:15:45;2.88;;;2.15;;
45970;SDS011;31681;48.982;8.394;2022-10-17T16:18:10;4.55;;;2.53;;
45970;SDS011;31681;48.982;8.394;2022-10-17T16:20:36;4.90;;;2.45;;
45970;SDS011;31681;48.982;8.394;2022-10-17T16:23:02;5.18;;;2.00;;
45970;SDS011;31681;48.982;8.394;2022-10-17T16:25:28;3.92;;;2.10;;
45970;SDS011;31681;48.982;8.394;2022-10-17T16:27:56;2.88;;;1.92;;
45970;SDS011;31681;48.982;8.394;2022-10-17T16:30:24;2.42;;;1.95;;
45970;SDS011;31681;48.982;8.394;2022-10-17T16:32:49;2.78;;;2.10;;
45970;SDS011;31681;48.982;8.394;2022-10-17T16:35:16;4.10;;;2.08;;
45970;SDS011;31681;48.982;8.394;2022-10-17T16:37:42;2.72;;;2.00;;
45970;SDS011;31681;48.982;8.394;2022-10-17T16:40:07;4.57;;;2.63;;
45970;SDS011;31681;48.982;8.394;2022-10-17T16:42:33;3.15;;;2.00;;
45970;SDS011;31681;48.982;8.394;2022-10-17T16:44:58;3.05;;;2.08;;